RRS Discovery — 2FGX5 — position and weather

sailwx.info

Track history (hours):
 
Tides and Currents Weather Stations Pressure Air Temp Water Temp Dewpoint Dewpoint Depression Visibility Wind Speed Wind Dir Waves Ship Positions

Oceanographic research ship RRS Discovery (UK)

Last reported at 2019-Sep-10 17:43 UTC. Time now 2019-Sep-15 22:06 UTC.
Position N 57°49' W 006°11'.

Length 100 m; draft 6.6 m.

Type: Other ship. MMSI: 235091165.

Date/timePositionNaut miles runAvg speedWind from/ knotsBaromVisibWave heightAir tempDewpointWater temp
2019-Sep-10 17:43N 57°49' W 006°11'410.6
2019-Sep-10 17:21N 57°46' W 006°14'2510.2
2019-Sep-10 14:55N 57°29' W 006°49'99 2.1
2019-Sep-08 16:26N 55°50' W 006°59'7 8.9
2019-Sep-08 15:41N 55°45' W 006°51'2 9.2
2019-Sep-08 15:30N 55°44' W 006°49'4 8.9
2019-Sep-08 15:00N 55°41' W 006°43'4 8.6
2019-Sep-08 14:30N 55°38' W 006°38'5 9.4
2019-Sep-08 14:00N 55°35' W 006°32'5 9.9
2019-Sep-08 13:30N 55°31' W 006°26'510.3
2019-Sep-08 13:00N 55°27' W 006°19'510.0
2019-Sep-08 12:30N 55°25' W 006°11'510.5
2019-Sep-08 12:00N 55°24' W 006°02'611.9
2019-Sep-08 11:30N 55°19' W 005°56'612.2
2019-Sep-08 11:00N 55°14' W 005°50'611.8
2019-Sep-08 10:30N 55°09' W 005°44'2210.8
2019-Sep-08 08:29N 54°51' W 005°23'610.8
2019-Sep-08 07:58N 54°46' W 005°19'510.8
2019-Sep-08 07:30N 54°41' W 005°16'510.5
2019-Sep-08 07:00N 54°36' W 005°13'510.2
2019-Sep-08 06:30N 54°31' W 005°11'510.2
2019-Sep-08 06:00N 54°26' W 005°08'510.4
2019-Sep-08 05:30N 54°21' W 005°09'610.3
2019-Sep-08 04:57N 54°16' W 005°10'153 9.9
2019-Sep-07 13:35N 51°45' W 005°48'110.8
2019-Sep-07 13:29N 51°44' W 005°48'510.5
2019-Sep-07 12:59N 51°38' W 005°50'510.4
2019-Sep-07 12:30N 51°34' W 005°49'510.0
2019-Sep-07 12:00N 51°29' W 005°51'510.1
2019-Sep-07 11:30N 51°24' W 005°50'106 7.5
2019-Sep-06 21:25N 49°52' W 004°24'510.8
2019-Sep-06 20:57N 49°54' W 004°17'511.0
2019-Sep-06 20:30N 49°55' W 004°09'611.4
2019-Sep-06 19:59N 49°57' W 004°01'611.5
2019-Sep-06 19:30N 49°58' W 003°52'611.7
2019-Sep-06 19:00N 49°59' W 003°43'611.7
2019-Sep-06 18:30N 50°01' W 003°35'611.8
2019-Sep-06 18:00N 50°03' W 003°26'611.6
2019-Sep-06 17:30N 50°05' W 003°17'611.4
2019-Sep-06 17:00N 50°07' W 003°09'611.1
2019-Sep-06 16:30N 50°09' W 003°01'510.7
2019-Sep-06 16:00N 50°11' W 002°53'510.3
2019-Sep-06 15:30N 50°13' W 002°46'5 9.9
2019-Sep-06 15:00N 50°15' W 002°39'5 9.4
2019-Sep-06 14:30N 50°16' W 002°32'13 8.6
2019-Sep-06 13:02N 50°22' W 002°14'0 8.2
2019-Sep-06 13:00N 50°22' W 002°14'7 6.1
2019-Sep-06 11:50N 50°26' W 002°05'2 6.9
2019-Sep-06 11:30N 50°28' W 002°02'3 6.3
2019-Sep-06 11:00N 50°29' W 001°58'4 8.7
2019-Sep-06 10:30N 50°32' W 001°52'5 9.3
2019-Sep-06 10:00N 50°35' W 001°46'5 9.9
2019-Sep-06 09:30N 50°37' W 001°40'5 9.2
2019-Sep-06 09:00N 50°41' W 001°35'510.0
2019-Sep-06 08:30N 50°44' W 001°28'4 7.6
2019-Sep-06 08:00N 50°45' W 001°23'2 4.2
2019-Sep-06 07:30N 50°46' W 001°20'4 7.5
2019-Sep-06 07:00N 50°50' W 001°19'4 8.8
2019-Sep-06 06:30N 50°53' W 001°23'1 1.0
2019-Sep-06 05:59N 50°54' W 001°24'0 0.0
2019-Sep-06 05:29N 50°54' W 001°24'0 0.0
2019-Sep-06 04:59N 50°54' W 001°24'0 0.0
2019-Sep-06 04:29N 50°54' W 001°24'0 0.0
2019-Sep-06 03:59N 50°54' W 001°24'0 0.0
2019-Sep-06 03:29N 50°54' W 001°24'0 0.0
2019-Sep-06 02:59N 50°54' W 001°24'0 0.0
2019-Sep-06 02:29N 50°54' W 001°24'0 0.0
2019-Sep-06 01:59N 50°54' W 001°24'0 0.0
2019-Sep-06 01:29N 50°54' W 001°24'0 0.0
2019-Sep-06 00:59N 50°54' W 001°24'0 0.0
2019-Sep-06 00:29N 50°54' W 001°24'0 0.0
2019-Sep-05 23:58N 50°54' W 001°24'0 0.0
2019-Sep-05 23:28N 50°54' W 001°24'0 0.0
2019-Sep-05 22:58N 50°54' W 001°24'0 0.0
2019-Sep-05 22:28N 50°54' W 001°24'0 0.0
2019-Sep-05 21:58N 50°54' W 001°24'0 0.0
2019-Sep-05 21:28N 50°54' W 001°24'0 0.0
2019-Sep-05 20:58N 50°54' W 001°24'0 0.0
2019-Sep-05 20:25N 50°54' W 001°24'0 0.0
2019-Sep-05 19:58N 50°54' W 001°24'0 0.0
2019-Sep-05 19:28N 50°54' W 001°24'0 0.0
2019-Sep-05 18:58N 50°54' W 001°24'0 0.0
2019-Sep-05 18:28N 50°54' W 001°24'0 0.0
2019-Sep-05 17:58N 50°54' W 001°24'0 0.0
2019-Sep-05 17:28N 50°54' W 001°24'0 0.0
2019-Sep-05 16:58N 50°54' W 001°24'0 0.0
2019-Sep-05 16:28N 50°54' W 001°24'0 0.0
2019-Sep-05 15:58N 50°54' W 001°24'0 0.0
2019-Sep-05 15:28N 50°54' W 001°24'0 0.0
2019-Sep-05 14:58N 50°54' W 001°24'0 0.0
2019-Sep-05 14:28N 50°54' W 001°24'0 0.0
2019-Sep-05 13:58N 50°54' W 001°24'0 0.0
2019-Sep-05 13:28N 50°54' W 001°24'0 0.0
2019-Sep-05 12:58N 50°54' W 001°24'0 0.0
2019-Sep-05 12:28N 50°54' W 001°24'0 0.0
2019-Sep-05 11:58N 50°54' W 001°24'0 0.0
2019-Sep-05 11:28N 50°54' W 001°24'0 0.0
2019-Sep-05 10:58N 50°54' W 001°24'0 0.0
2019-Sep-05 10:28N 50°54' W 001°24'0 0.0
2019-Sep-05 09:58N 50°54' W 001°24'0 0.0
2019-Sep-05 09:25N 50°54' W 001°24'0 0.0
2019-Sep-05 08:58N 50°54' W 001°24'0 0.0
2019-Sep-05 08:28N 50°54' W 001°24'0 0.0
2019-Sep-05 07:58N 50°54' W 001°24'0 0.0
2019-Sep-05 07:28N 50°54' W 001°24'0 0.0
2019-Sep-05 06:58N 50°54' W 001°24'0 0.0
2019-Sep-05 06:28N 50°54' W 001°24'0 0.0
2019-Sep-05 05:58N 50°54' W 001°24'0 0.0
2019-Sep-05 05:28N 50°54' W 001°24'0 0.0
2019-Sep-05 04:58N 50°54' W 001°24'0 0.0
2019-Sep-05 04:25N 50°54' W 001°24'0 0.0
2019-Sep-05 03:58N 50°54' W 001°24'0 0.0
2019-Sep-05 03:28N 50°54' W 001°24'0 0.0
2019-Sep-05 02:58N 50°54' W 001°24'0 0.0
2019-Sep-05 01:58N 50°54' W 001°24'0 0.0
2019-Sep-05 01:28N 50°54' W 001°24'0 0.0
2019-Sep-05 00:58N 50°54' W 001°24'0 0.0
2019-Sep-05 00:25N 50°54' W 001°24'0 0.0
2019-Sep-04 23:55N 50°54' W 001°24'0 0.0
2019-Sep-04 23:28N 50°54' W 001°24'0 0.0
2019-Sep-04 22:58N 50°54' W 001°24'0 0.0
2019-Sep-04 22:28N 50°54' W 001°24'0 0.0
2019-Sep-04 21:55N 50°54' W 001°24'0 0.0
2019-Sep-04 21:31N 50°54' W 001°24'0 0.0
2019-Sep-04 21:01N 50°54' W 001°24'0 0.0
2019-Sep-04 20:28N 50°54' W 001°24'0 0.0
2019-Sep-04 20:00N 50°54' W 001°24'0 0.0
2019-Sep-04 19:30N 50°54' W 001°24'0 0.0
2019-Sep-04 18:54N 50°54' W 001°24'0 0.0
2019-Sep-04 18:28N 50°54' W 001°24'0 0.0
2019-Sep-04 18:00N 50°54' W 001°24'0 0.0
2019-Sep-04 17:30N 50°54' W 001°24'0 0.0
2019-Sep-04 17:00N 50°54' W 001°24'0 0.0
2019-Sep-04 16:30N 50°54' W 001°24'0 0.0
2019-Sep-04 16:00N 50°54' W 001°24'0 0.0
2019-Sep-04 15:30N 50°54' W 001°24'0 0.0
2019-Sep-04 15:00N 50°54' W 001°24'0 0.0
2019-Sep-04 14:30N 50°54' W 001°24'0 0.0
2019-Sep-04 14:00N 50°54' W 001°24'0 0.0
2019-Sep-04 13:30N 50°54' W 001°24'0 0.0
2019-Sep-04 13:00N 50°54' W 001°24'0 0.0
2019-Sep-04 12:30N 50°54' W 001°24'0 0.0
2019-Sep-04 12:00N 50°54' W 001°24'0 0.0
2019-Sep-04 11:27N 50°54' W 001°24'0 0.0
2019-Sep-04 10:51N 50°54' W 001°24'0 0.0
2019-Sep-04 10:30N 50°54' W 001°24'0 0.0
2019-Sep-04 10:00N 50°54' W 001°24'0 0.0
2019-Sep-04 09:27N 50°54' W 001°24'0 0.0
2019-Sep-04 08:57N 50°54' W 001°24'0 0.0
2019-Sep-04 08:24N 50°54' W 001°24'0 0.0
2019-Sep-04 07:42N 50°54' W 001°24'0 0.0
2019-Sep-04 07:27N 50°54' W 001°24'0 0.0
2019-Sep-04 07:00N 50°54' W 001°24'0 0.0
2019-Sep-04 06:30N 50°54' W 001°24'0 0.0
2019-Sep-04 06:00N 50°54' W 001°24'0 0.0
2019-Sep-04 05:30N 50°54' W 001°24'0 0.0
2019-Sep-04 05:00N 50°54' W 001°24'0 0.0
2019-Sep-04 04:30N 50°54' W 001°24'0 0.0
2019-Sep-04 04:00N 50°54' W 001°24'0 0.0
2019-Sep-04 03:30N 50°54' W 001°24'0 0.0
2019-Sep-04 03:00N 50°54' W 001°24'0 0.0
2019-Sep-04 02:30N 50°54' W 001°24'0 0.0
2019-Sep-04 02:00N 50°54' W 001°24'0 0.0
2019-Sep-04 01:27N 50°54' W 001°24'0 0.0
2019-Sep-04 01:00N 50°54' W 001°24'0 0.0
2019-Sep-04 00:21N 50°54' W 001°24'0 0.0
2019-Sep-04 00:00N 50°54' W 001°24'0 0.0
2019-Sep-03 23:30N 50°54' W 001°24'0 0.0
2019-Sep-03 23:00N 50°54' W 001°24'0 0.0
2019-Sep-03 22:24N 50°54' W 001°24'0 0.0
2019-Sep-03 21:45N 50°54' W 001°24'0 0.0
2019-Sep-03 21:21N 50°54' W 001°24'0 0.0
2019-Sep-03 20:57N 50°54' W 001°24'0 0.0
2019-Sep-03 20:30N 50°54' W 001°24'0 0.0
2019-Sep-03 19:57N 50°54' W 001°24'0 0.0
2019-Sep-03 19:27N 50°54' W 001°24'0 0.0
2019-Sep-03 18:57N 50°54' W 001°24'0 0.0
2019-Sep-03 18:21N 50°54' W 001°24'0 0.0
2019-Sep-03 18:00N 50°54' W 001°24'0 0.0
2019-Sep-03 17:30N 50°54' W 001°24'0 0.0
2019-Sep-03 17:00N 50°54' W 001°24'0 0.0
2019-Sep-03 16:30N 50°54' W 001°24'0 0.0
2019-Sep-03 16:00N 50°54' W 001°24'0 0.0
2019-Sep-03 15:27N 50°54' W 001°24'0 0.0
2019-Sep-03 15:00N 50°54' W 001°24'0 0.0
2019-Sep-03 14:30N 50°54' W 001°24'0 0.0
2019-Sep-03 14:00N 50°54' W 001°24'0 0.0
2019-Sep-03 13:29N 50°54' W 001°24'0 0.0
2019-Sep-03 12:59N 50°54' W 001°24'0 0.0
2019-Sep-03 12:23N 50°54' W 001°24'0 0.0
2019-Sep-03 11:59N 50°54' W 001°24'0 0.0
2019-Sep-03 11:29N 50°54' W 001°24'0 0.0
2019-Sep-03 10:53N 50°54' W 001°24'0 0.0
2019-Sep-03 10:27N 50°54' W 001°24'0 0.0
2019-Sep-03 09:41N 50°54' W 001°24'0 0.0
2019-Sep-03 09:29N 50°54' W 001°24'0 0.0
2019-Sep-03 08:59N 50°54' W 001°24'0 0.0
2019-Sep-03 08:26N 50°54' W 001°24'0 0.0
2019-Sep-03 07:56N 50°54' W 001°24'0 0.0
2019-Sep-03 07:29N 50°54' W 001°24'0 0.0
2019-Sep-03 06:56N 50°54' W 001°24'0 0.0
2019-Sep-03 06:23N 50°54' W 001°24'0 0.0
2019-Sep-03 05:56N 50°54' W 001°24'0 0.0
2019-Sep-03 05:08N 50°54' W 001°24'0 0.0
2019-Sep-03 04:59N 50°54' W 001°24'0 0.0
2019-Sep-03 04:23N 50°54' W 001°24'0 0.0
2019-Sep-03 03:59N 50°54' W 001°24'0 0.0
2019-Sep-03 03:26N 50°54' W 001°24'0 0.0
2019-Sep-03 02:59N 50°54' W 001°24'0 0.0
2019-Sep-03 02:26N 50°54' W 001°24'0 0.0
2019-Sep-03 01:59N 50°54' W 001°24'0 0.0
2019-Sep-03 01:29N 50°54' W 001°24'0 0.0
2019-Sep-03 00:56N 50°54' W 001°24'0 0.0
2019-Sep-03 00:26N 50°54' W 001°24'0 0.0
2019-Sep-02 23:53N 50°54' W 001°24'0 0.0
2019-Sep-02 23:26N 50°54' W 001°24'0 0.0
2019-Sep-02 22:59N 50°54' W 001°24'0 0.0
2019-Sep-02 22:29N 50°54' W 001°24'0 0.0
2019-Sep-02 21:56N 50°54' W 001°24'0 0.0
2019-Sep-02 21:14N 50°54' W 001°24'0 0.0
2019-Sep-02 20:59N 50°54' W 001°24'0 0.0
2019-Sep-02 20:20N 50°54' W 001°24'0 0.0
2019-Sep-02 19:50N 50°54' W 001°24'0 0.0
2019-Sep-02 19:08N 50°54' W 001°24'0 0.0
2019-Sep-02 18:56N 50°54' W 001°24'0 0.0
2019-Sep-02 18:26N 50°54' W 001°24'0 0.0
2019-Sep-02 17:44N 50°54' W 001°24'0 0.0
2019-Sep-02 17:20N 50°54' W 001°24'0 0.0
2019-Sep-02 16:59N 50°54' W 001°24'0 0.0
2019-Sep-02 16:29N 50°54' W 001°24'0 0.0
2019-Sep-02 15:59N 50°54' W 001°24'0 0.0
2019-Sep-02 13:53N 50°54' W 001°24'0 0.0
2019-Sep-02 13:29N 50°54' W 001°24'0 0.0
2019-Sep-02 12:53N 50°54' W 001°24'0 0.0
2019-Sep-02 12:14N 50°54' W 001°24'0 0.0
2019-Sep-02 09:56N 50°54' W 001°24'0 0.0
2019-Sep-02 09:05N 50°54' W 001°24'0 0.0
2019-Sep-02 08:53N 50°54' W 001°24'0 0.0
2019-Sep-02 06:56N 50°54' W 001°24'0 0.0
2019-Sep-02 05:29N 50°54' W 001°24'0 0.0
2019-Sep-02 04:59N 50°54' W 001°24'0 0.0
2019-Sep-02 04:28N 50°54' W 001°24'0 0.0
2019-Sep-02 03:52N 50°54' W 001°24'0 0.0
2019-Sep-02 03:28N 50°54' W 001°24'0 0.0
2019-Sep-02 02:58N 50°54' W 001°24'0 0.0
2019-Sep-02 02:28N 50°54' W 001°24'0 0.0
2019-Sep-02 01:58N 50°54' W 001°24'0 0.0
2019-Sep-02 01:25N 50°54' W 001°24'0 0.0
2019-Sep-02 00:58N 50°54' W 001°24'0 0.0
2019-Sep-02 00:28N 50°54' W 001°24'0 0.0
2019-Sep-01 23:58N 50°54' W 001°24'0 0.0
2019-Sep-01 23:28N 50°54' W 001°24'0 0.0
2019-Sep-01 22:40N 50°54' W 001°24'0 0.0
2019-Sep-01 22:16N 50°54' W 001°24'0 0.0
2019-Sep-01 21:49N 50°54' W 001°24'0 0.0
2019-Sep-01 21:22N 50°54' W 001°24'0 0.0
2019-Sep-01 20:46N 50°54' W 001°24'0 0.0
2019-Sep-01 20:28N 50°54' W 001°24'0 0.0
2019-Sep-01 19:58N 50°54' W 001°24'0 0.0
2019-Sep-01 19:25N 50°54' W 001°24'0 0.0
2019-Sep-01 18:49N 50°54' W 001°24'0 0.0
2019-Sep-01 18:28N 50°54' W 001°24'0 0.0
2019-Sep-01 17:49N 50°54' W 001°24'0 0.0
2019-Sep-01 17:28N 50°54' W 001°24'0 0.0
2019-Sep-01 16:58N 50°54' W 001°24'0 0.0
2019-Sep-01 16:19N 50°54' W 001°24'0 0.0
2019-Sep-01 15:58N 50°54' W 001°24'0 0.0
2019-Sep-01 15:28N 50°54' W 001°24'0 0.0
2019-Sep-01 14:58N 50°54' W 001°24'0 0.0
2019-Sep-01 14:13N 50°54' W 001°24'0 0.0
2019-Sep-01 13:55N 50°54' W 001°24'0 0.0
2019-Sep-01 13:22N 50°54' W 001°24'0 0.0
2019-Sep-01 12:55N 50°54' W 001°24'0 0.0
2019-Sep-01 12:16N 50°54' W 001°24'0 0.0
2019-Sep-01 11:58N 50°54' W 001°24'0 0.0
2019-Sep-01 11:28N 50°54' W 001°24'0 0.0
2019-Sep-01 10:52N 50°54' W 001°24'0 0.0
2019-Sep-01 10:22N 50°54' W 001°24'0 0.0
2019-Sep-01 09:58N 50°54' W 001°24'0 0.0
2019-Sep-01 09:19N 50°54' W 001°24'0 0.0
2019-Sep-01 08:55N 50°54' W 001°24'0 0.0
2019-Sep-01 08:28N 50°54' W 001°24'0 0.0
2019-Sep-01 07:58N 50°54' W 001°24'0 0.0
2019-Sep-01 07:13N 50°54' W 001°24'0 0.0
2019-Sep-01 06:49N 50°54' W 001°24'0 0.0
2019-Sep-01 06:28N 50°54' W 001°24'0 0.0
2019-Sep-01 05:52N 50°54' W 001°24'0 0.0
2019-Sep-01 05:25N 50°54' W 001°24'0 0.0
2019-Sep-01 04:43N 50°54' W 001°24'0 0.0
2019-Sep-01 04:28N 50°54' W 001°24'0 0.0
2019-Sep-01 03:58N 50°54' W 001°24'0 0.0
2019-Sep-01 03:28N 50°54' W 001°24'0 0.0
2019-Sep-01 02:58N 50°54' W 001°24'0 0.0
2019-Sep-01 02:25N 50°54' W 001°24'0 0.0
2019-Sep-01 01:49N 50°54' W 001°24'0 0.0
2019-Sep-01 01:28N 50°54' W 001°24'0 0.0
2019-Sep-01 00:58N 50°54' W 001°24'0 0.0
2019-Sep-01 00:28N 50°54' W 001°24'0 0.0
2019-Aug-31 23:58N 50°54' W 001°24'0 0.0
2019-Aug-31 23:28N 50°54' W 001°24'  
Track history (hours):
 
Tides and Currents Weather Stations Pressure Air Temp Water Temp Dewpoint Dewpoint Depression Visibility Wind Speed Wind Dir Waves Ship Positions

Oceanographic research ship RRS Discovery (UK)

Last reported at 2019-Sep-10 17:43 UTC. Time now 2019-Sep-15 22:06 UTC.
Position N 57°49' W 006°11'.

Length 100 m; draft 6.6 m.

Type: Other ship. MMSI: 235091165.

Date/timePositionNaut miles runAvg speedWind from/ knotsBaromVisibWave heightAir tempDewpointWater temp
2019-Sep-10 17:43N 57°49' W 006°11'410.6
2019-Sep-10 17:21N 57°46' W 006°14'2510.2
2019-Sep-10 14:55N 57°29' W 006°49'99 2.1
2019-Sep-08 16:26N 55°50' W 006°59'7 8.9
2019-Sep-08 15:41N 55°45' W 006°51'2 9.2
2019-Sep-08 15:30N 55°44' W 006°49'4 8.9
2019-Sep-08 15:00N 55°41' W 006°43'4 8.6
2019-Sep-08 14:30N 55°38' W 006°38'5 9.4
2019-Sep-08 14:00N 55°35' W 006°32'5 9.9
2019-Sep-08 13:30N 55°31' W 006°26'510.3
2019-Sep-08 13:00N 55°27' W 006°19'510.0
2019-Sep-08 12:30N 55°25' W 006°11'510.5
2019-Sep-08 12:00N 55°24' W 006°02'611.9
2019-Sep-08 11:30N 55°19' W 005°56'612.2
2019-Sep-08 11:00N 55°14' W 005°50'611.8
2019-Sep-08 10:30N 55°09' W 005°44'2210.8
2019-Sep-08 08:29N 54°51' W 005°23'610.8
2019-Sep-08 07:58N 54°46' W 005°19'510.8
2019-Sep-08 07:30N 54°41' W 005°16'510.5
2019-Sep-08 07:00N 54°36' W 005°13'510.2
2019-Sep-08 06:30N 54°31' W 005°11'510.2
2019-Sep-08 06:00N 54°26' W 005°08'510.4
2019-Sep-08 05:30N 54°21' W 005°09'610.3
2019-Sep-08 04:57N 54°16' W 005°10'153 9.9
2019-Sep-07 13:35N 51°45' W 005°48'110.8
2019-Sep-07 13:29N 51°44' W 005°48'510.5
2019-Sep-07 12:59N 51°38' W 005°50'510.4
2019-Sep-07 12:30N 51°34' W 005°49'510.0
2019-Sep-07 12:00N 51°29' W 005°51'510.1
2019-Sep-07 11:30N 51°24' W 005°50'106 7.5
2019-Sep-06 21:25N 49°52' W 004°24'510.8
2019-Sep-06 20:57N 49°54' W 004°17'511.0
2019-Sep-06 20:30N 49°55' W 004°09'611.4
2019-Sep-06 19:59N 49°57' W 004°01'611.5
2019-Sep-06 19:30N 49°58' W 003°52'611.7
2019-Sep-06 19:00N 49°59' W 003°43'611.7
2019-Sep-06 18:30N 50°01' W 003°35'611.8
2019-Sep-06 18:00N 50°03' W 003°26'611.6
2019-Sep-06 17:30N 50°05' W 003°17'611.4
2019-Sep-06 17:00N 50°07' W 003°09'611.1
2019-Sep-06 16:30N 50°09' W 003°01'510.7
2019-Sep-06 16:00N 50°11' W 002°53'510.3
2019-Sep-06 15:30N 50°13' W 002°46'5 9.9
2019-Sep-06 15:00N 50°15' W 002°39'5 9.4
2019-Sep-06 14:30N 50°16' W 002°32'13 8.6
2019-Sep-06 13:02N 50°22' W 002°14'0 8.2
2019-Sep-06 13:00N 50°22' W 002°14'7 6.1
2019-Sep-06 11:50N 50°26' W 002°05'2 6.9
2019-Sep-06 11:30N 50°28' W 002°02'3 6.3
2019-Sep-06 11:00N 50°29' W 001°58'4 8.7
2019-Sep-06 10:30N 50°32' W 001°52'5 9.3
2019-Sep-06 10:00N 50°35' W 001°46'5 9.9
2019-Sep-06 09:30N 50°37' W 001°40'5 9.2
2019-Sep-06 09:00N 50°41' W 001°35'510.0
2019-Sep-06 08:30N 50°44' W 001°28'4 7.6
2019-Sep-06 08:00N 50°45' W 001°23'2 4.2
2019-Sep-06 07:30N 50°46' W 001°20'4 7.5
2019-Sep-06 07:00N 50°50' W 001°19'4 8.8
2019-Sep-06 06:30N 50°53' W 001°23'1 1.0
2019-Sep-06 05:59N 50°54' W 001°24'0 0.0
2019-Sep-06 05:29N 50°54' W 001°24'0 0.0
2019-Sep-06 04:59N 50°54' W 001°24'0 0.0
2019-Sep-06 04:29N 50°54' W 001°24'0 0.0
2019-Sep-06 03:59N 50°54' W 001°24'0 0.0
2019-Sep-06 03:29N 50°54' W 001°24'0 0.0
2019-Sep-06 02:59N 50°54' W 001°24'0 0.0
2019-Sep-06 02:29N 50°54' W 001°24'0 0.0
2019-Sep-06 01:59N 50°54' W 001°24'0 0.0
2019-Sep-06 01:29N 50°54' W 001°24'0 0.0
2019-Sep-06 00:59N 50°54' W 001°24'0 0.0
2019-Sep-06 00:29N 50°54' W 001°24'0 0.0
2019-Sep-05 23:58N 50°54' W 001°24'0 0.0
2019-Sep-05 23:28N 50°54' W 001°24'0 0.0
2019-Sep-05 22:58N 50°54' W 001°24'0 0.0
2019-Sep-05 22:28N 50°54' W 001°24'0 0.0
2019-Sep-05 21:58N 50°54' W 001°24'0 0.0
2019-Sep-05 21:28N 50°54' W 001°24'0 0.0
2019-Sep-05 20:58N 50°54' W 001°24'0 0.0
2019-Sep-05 20:25N 50°54' W 001°24'0 0.0
2019-Sep-05 19:58N 50°54' W 001°24'0 0.0
2019-Sep-05 19:28N 50°54' W 001°24'0 0.0
2019-Sep-05 18:58N 50°54' W 001°24'0 0.0
2019-Sep-05 18:28N 50°54' W 001°24'0 0.0
2019-Sep-05 17:58N 50°54' W 001°24'0 0.0
2019-Sep-05 17:28N 50°54' W 001°24'0 0.0
2019-Sep-05 16:58N 50°54' W 001°24'0 0.0
2019-Sep-05 16:28N 50°54' W 001°24'0 0.0
2019-Sep-05 15:58N 50°54' W 001°24'0 0.0
2019-Sep-05 15:28N 50°54' W 001°24'0 0.0
2019-Sep-05 14:58N 50°54' W 001°24'0 0.0
2019-Sep-05 14:28N 50°54' W 001°24'0 0.0
2019-Sep-05 13:58N 50°54' W 001°24'0 0.0
2019-Sep-05 13:28N 50°54' W 001°24'0 0.0
2019-Sep-05 12:58N 50°54' W 001°24'0 0.0
2019-Sep-05 12:28N 50°54' W 001°24'0 0.0
2019-Sep-05 11:58N 50°54' W 001°24'0 0.0
2019-Sep-05 11:28N 50°54' W 001°24'0 0.0
2019-Sep-05 10:58N 50°54' W 001°24'0 0.0
2019-Sep-05 10:28N 50°54' W 001°24'0 0.0
2019-Sep-05 09:58N 50°54' W 001°24'0 0.0
2019-Sep-05 09:25N 50°54' W 001°24'0 0.0
2019-Sep-05 08:58N 50°54' W 001°24'0 0.0
2019-Sep-05 08:28N 50°54' W 001°24'0 0.0
2019-Sep-05 07:58N 50°54' W 001°24'0 0.0
2019-Sep-05 07:28N 50°54' W 001°24'0 0.0
2019-Sep-05 06:58N 50°54' W 001°24'0 0.0
2019-Sep-05 06:28N 50°54' W 001°24'0 0.0
2019-Sep-05 05:58N 50°54' W 001°24'0 0.0
2019-Sep-05 05:28N 50°54' W 001°24'0 0.0
2019-Sep-05 04:58N 50°54' W 001°24'0 0.0
2019-Sep-05 04:25N 50°54' W 001°24'0 0.0
2019-Sep-05 03:58N 50°54' W 001°24'0 0.0
2019-Sep-05 03:28N 50°54' W 001°24'0 0.0
2019-Sep-05 02:58N 50°54' W 001°24'0 0.0
2019-Sep-05 01:58N 50°54' W 001°24'0 0.0
2019-Sep-05 01:28N 50°54' W 001°24'0 0.0
2019-Sep-05 00:58N 50°54' W 001°24'0 0.0
2019-Sep-05 00:25N 50°54' W 001°24'0 0.0
2019-Sep-04 23:55N 50°54' W 001°24'0 0.0
2019-Sep-04 23:28N 50°54' W 001°24'0 0.0
2019-Sep-04 22:58N 50°54' W 001°24'0 0.0
2019-Sep-04 22:28N 50°54' W 001°24'0 0.0
2019-Sep-04 21:55N 50°54' W 001°24'0 0.0
2019-Sep-04 21:31N 50°54' W 001°24'0 0.0
2019-Sep-04 21:01N 50°54' W 001°24'0 0.0
2019-Sep-04 20:28N 50°54' W 001°24'0 0.0
2019-Sep-04 20:00N 50°54' W 001°24'0 0.0
2019-Sep-04 19:30N 50°54' W 001°24'0 0.0
2019-Sep-04 18:54N 50°54' W 001°24'0 0.0
2019-Sep-04 18:28N 50°54' W 001°24'0 0.0
2019-Sep-04 18:00N 50°54' W 001°24'0 0.0
2019-Sep-04 17:30N 50°54' W 001°24'0 0.0
2019-Sep-04 17:00N 50°54' W 001°24'0 0.0
2019-Sep-04 16:30N 50°54' W 001°24'0 0.0
2019-Sep-04 16:00N 50°54' W 001°24'0 0.0
2019-Sep-04 15:30N 50°54' W 001°24'0 0.0
2019-Sep-04 15:00N 50°54' W 001°24'0 0.0
2019-Sep-04 14:30N 50°54' W 001°24'0 0.0
2019-Sep-04 14:00N 50°54' W 001°24'0 0.0
2019-Sep-04 13:30N 50°54' W 001°24'0 0.0
2019-Sep-04 13:00N 50°54' W 001°24'0 0.0
2019-Sep-04 12:30N 50°54' W 001°24'0 0.0
2019-Sep-04 12:00N 50°54' W 001°24'0 0.0
2019-Sep-04 11:27N 50°54' W 001°24'0 0.0
2019-Sep-04 10:51N 50°54' W 001°24'0 0.0
2019-Sep-04 10:30N 50°54' W 001°24'0 0.0
2019-Sep-04 10:00N 50°54' W 001°24'0 0.0
2019-Sep-04 09:27N 50°54' W 001°24'0 0.0
2019-Sep-04 08:57N 50°54' W 001°24'0 0.0
2019-Sep-04 08:24N 50°54' W 001°24'0 0.0
2019-Sep-04 07:42N 50°54' W 001°24'0 0.0
2019-Sep-04 07:27N 50°54' W 001°24'0 0.0
2019-Sep-04 07:00N 50°54' W 001°24'0 0.0
2019-Sep-04 06:30N 50°54' W 001°24'0 0.0
2019-Sep-04 06:00N 50°54' W 001°24'0 0.0
2019-Sep-04 05:30N 50°54' W 001°24'0 0.0
2019-Sep-04 05:00N 50°54' W 001°24'0 0.0
2019-Sep-04 04:30N 50°54' W 001°24'0 0.0
2019-Sep-04 04:00N 50°54' W 001°24'0 0.0
2019-Sep-04 03:30N 50°54' W 001°24'0 0.0
2019-Sep-04 03:00N 50°54' W 001°24'0 0.0
2019-Sep-04 02:30N 50°54' W 001°24'0 0.0
2019-Sep-04 02:00N 50°54' W 001°24'0 0.0
2019-Sep-04 01:27N 50°54' W 001°24'0 0.0
2019-Sep-04 01:00N 50°54' W 001°24'0 0.0
2019-Sep-04 00:21N 50°54' W 001°24'0 0.0
2019-Sep-04 00:00N 50°54' W 001°24'0 0.0
2019-Sep-03 23:30N 50°54' W 001°24'0 0.0
2019-Sep-03 23:00N 50°54' W 001°24'0 0.0
2019-Sep-03 22:24N 50°54' W 001°24'0 0.0
2019-Sep-03 21:45N 50°54' W 001°24'0 0.0
2019-Sep-03 21:21N 50°54' W 001°24'0 0.0
2019-Sep-03 20:57N 50°54' W 001°24'0 0.0
2019-Sep-03 20:30N 50°54' W 001°24'0 0.0
2019-Sep-03 19:57N 50°54' W 001°24'0 0.0
2019-Sep-03 19:27N 50°54' W 001°24'0 0.0
2019-Sep-03 18:57N 50°54' W 001°24'0 0.0
2019-Sep-03 18:21N 50°54' W 001°24'0 0.0
2019-Sep-03 18:00N 50°54' W 001°24'0 0.0
2019-Sep-03 17:30N 50°54' W 001°24'0 0.0
2019-Sep-03 17:00N 50°54' W 001°24'0 0.0
2019-Sep-03 16:30N 50°54' W 001°24'0 0.0
2019-Sep-03 16:00N 50°54' W 001°24'0 0.0
2019-Sep-03 15:27N 50°54' W 001°24'0 0.0
2019-Sep-03 15:00N 50°54' W 001°24'0 0.0
2019-Sep-03 14:30N 50°54' W 001°24'0 0.0
2019-Sep-03 14:00N 50°54' W 001°24'0 0.0
2019-Sep-03 13:29N 50°54' W 001°24'0 0.0
2019-Sep-03 12:59N 50°54' W 001°24'0 0.0
2019-Sep-03 12:23N 50°54' W 001°24'0 0.0
2019-Sep-03 11:59N 50°54' W 001°24'0 0.0
2019-Sep-03 11:29N 50°54' W 001°24'0 0.0
2019-Sep-03 10:53N 50°54' W 001°24'0 0.0
2019-Sep-03 10:27N 50°54' W 001°24'0 0.0
2019-Sep-03 09:41N 50°54' W 001°24'0 0.0
2019-Sep-03 09:29N 50°54' W 001°24'0 0.0
2019-Sep-03 08:59N 50°54' W 001°24'0 0.0
2019-Sep-03 08:26N 50°54' W 001°24'0 0.0
2019-Sep-03 07:56N 50°54' W 001°24'0 0.0
2019-Sep-03 07:29N 50°54' W 001°24'0 0.0
2019-Sep-03 06:56N 50°54' W 001°24'0 0.0
2019-Sep-03 06:23N 50°54' W 001°24'0 0.0
2019-Sep-03 05:56N 50°54' W 001°24'0 0.0
2019-Sep-03 05:08N 50°54' W 001°24'0 0.0
2019-Sep-03 04:59N 50°54' W 001°24'0 0.0
2019-Sep-03 04:23N 50°54' W 001°24'0 0.0
2019-Sep-03 03:59N 50°54' W 001°24'0 0.0
2019-Sep-03 03:26N 50°54' W 001°24'0 0.0
2019-Sep-03 02:59N 50°54' W 001°24'0 0.0
2019-Sep-03 02:26N 50°54' W 001°24'0 0.0
2019-Sep-03 01:59N 50°54' W 001°24'0 0.0
2019-Sep-03 01:29N 50°54' W 001°24'0 0.0
2019-Sep-03 00:56N 50°54' W 001°24'0 0.0
2019-Sep-03 00:26N 50°54' W 001°24'0 0.0
2019-Sep-02 23:53N 50°54' W 001°24'0 0.0
2019-Sep-02 23:26N 50°54' W 001°24'0 0.0
2019-Sep-02 22:59N 50°54' W 001°24'0 0.0
2019-Sep-02 22:29N 50°54' W 001°24'0 0.0
2019-Sep-02 21:56N 50°54' W 001°24'0 0.0
2019-Sep-02 21:14N 50°54' W 001°24'0 0.0
2019-Sep-02 20:59N 50°54' W 001°24'0 0.0
2019-Sep-02 20:20N 50°54' W 001°24'0 0.0
2019-Sep-02 19:50N 50°54' W 001°24'0 0.0
2019-Sep-02 19:08N 50°54' W 001°24'0 0.0
2019-Sep-02 18:56N 50°54' W 001°24'0 0.0
2019-Sep-02 18:26N 50°54' W 001°24'0 0.0
2019-Sep-02 17:44N 50°54' W 001°24'0 0.0
2019-Sep-02 17:20N 50°54' W 001°24'0 0.0
2019-Sep-02 16:59N 50°54' W 001°24'0 0.0
2019-Sep-02 16:29N 50°54' W 001°24'0 0.0
2019-Sep-02 15:59N 50°54' W 001°24'0 0.0
2019-Sep-02 13:53N 50°54' W 001°24'0 0.0
2019-Sep-02 13:29N 50°54' W 001°24'0 0.0
2019-Sep-02 12:53N 50°54' W 001°24'0 0.0
2019-Sep-02 12:14N 50°54' W 001°24'0 0.0
2019-Sep-02 09:56N 50°54' W 001°24'0 0.0
2019-Sep-02 09:05N 50°54' W 001°24'0 0.0
2019-Sep-02 08:53N 50°54' W 001°24'0 0.0
2019-Sep-02 06:56N 50°54' W 001°24'0 0.0
2019-Sep-02 05:29N 50°54' W 001°24'0 0.0
2019-Sep-02 04:59N 50°54' W 001°24'0 0.0
2019-Sep-02 04:28N 50°54' W 001°24'0 0.0
2019-Sep-02 03:52N 50°54' W 001°24'0 0.0
2019-Sep-02 03:28N 50°54' W 001°24'0 0.0
2019-Sep-02 02:58N 50°54' W 001°24'0 0.0
2019-Sep-02 02:28N 50°54' W 001°24'0 0.0
2019-Sep-02 01:58N 50°54' W 001°24'0 0.0
2019-Sep-02 01:25N 50°54' W 001°24'0 0.0
2019-Sep-02 00:58N 50°54' W 001°24'0 0.0
2019-Sep-02 00:28N 50°54' W 001°24'0 0.0
2019-Sep-01 23:58N 50°54' W 001°24'0 0.0
2019-Sep-01 23:28N 50°54' W 001°24'0 0.0
2019-Sep-01 22:40N 50°54' W 001°24'0 0.0
2019-Sep-01 22:16N 50°54' W 001°24'0 0.0
2019-Sep-01 21:49N 50°54' W 001°24'0 0.0
2019-Sep-01 21:22N 50°54' W 001°24'0 0.0
2019-Sep-01 20:46N 50°54' W 001°24'0 0.0
2019-Sep-01 20:28N 50°54' W 001°24'0 0.0
2019-Sep-01 19:58N 50°54' W 001°24'0 0.0
2019-Sep-01 19:25N 50°54' W 001°24'0 0.0
2019-Sep-01 18:49N 50°54' W 001°24'0 0.0
2019-Sep-01 18:28N 50°54' W 001°24'0 0.0
2019-Sep-01 17:49N 50°54' W 001°24'0 0.0
2019-Sep-01 17:28N 50°54' W 001°24'0 0.0
2019-Sep-01 16:58N 50°54' W 001°24'0 0.0
2019-Sep-01 16:19N 50°54' W 001°24'0 0.0
2019-Sep-01 15:58N 50°54' W 001°24'0 0.0
2019-Sep-01 15:28N 50°54' W 001°24'0 0.0
2019-Sep-01 14:58N 50°54' W 001°24'0 0.0
2019-Sep-01 14:13N 50°54' W 001°24'0 0.0
2019-Sep-01 13:55N 50°54' W 001°24'0 0.0
2019-Sep-01 13:22N 50°54' W 001°24'0 0.0
2019-Sep-01 12:55N 50°54' W 001°24'0 0.0
2019-Sep-01 12:16N 50°54' W 001°24'0 0.0
2019-Sep-01 11:58N 50°54' W 001°24'0 0.0
2019-Sep-01 11:28N 50°54' W 001°24'0 0.0
2019-Sep-01 10:52N 50°54' W 001°24'0 0.0
2019-Sep-01 10:22N 50°54' W 001°24'0 0.0
2019-Sep-01 09:58N 50°54' W 001°24'0 0.0
2019-Sep-01 09:19N 50°54' W 001°24'0 0.0
2019-Sep-01 08:55N 50°54' W 001°24'0 0.0
2019-Sep-01 08:28N 50°54' W 001°24'0 0.0
2019-Sep-01 07:58N 50°54' W 001°24'0 0.0
2019-Sep-01 07:13N 50°54' W 001°24'0 0.0
2019-Sep-01 06:49N 50°54' W 001°24'0 0.0
2019-Sep-01 06:28N 50°54' W 001°24'0 0.0
2019-Sep-01 05:52N 50°54' W 001°24'0 0.0
2019-Sep-01 05:25N 50°54' W 001°24'0 0.0
2019-Sep-01 04:43N 50°54' W 001°24'0 0.0
2019-Sep-01 04:28N 50°54' W 001°24'0 0.0
2019-Sep-01 03:58N 50°54' W 001°24'0 0.0
2019-Sep-01 03:28N 50°54' W 001°24'0 0.0
2019-Sep-01 02:58N 50°54' W 001°24'0 0.0
2019-Sep-01 02:25N 50°54' W 001°24'0 0.0
2019-Sep-01 01:49N 50°54' W 001°24'0 0.0
2019-Sep-01 01:28N 50°54' W 001°24'0 0.0
2019-Sep-01 00:58N 50°54' W 001°24'0 0.0
2019-Sep-01 00:28N 50°54' W 001°24'0 0.0
2019-Aug-31 23:58N 50°54' W 001°24'0 0.0
2019-Aug-31 23:28N 50°54' W 001°24'  

Dump ship's entire track history